createdAt,value
2023-02-19T00:00:40.013Z,8.50
2023-02-19T00:01:39.968Z,8.60
2023-02-19T00:02:39.809Z,8.70
2023-02-19T00:03:40.010Z,8.80
2023-02-19T00:04:40.097Z,9.00
2023-02-19T00:05:39.932Z,8.50
2023-02-19T00:06:39.948Z,9.10
2023-02-19T00:07:39.969Z,8.50
2023-02-19T00:08:39.747Z,8.10
2023-02-19T00:09:39.958Z,7.80
2023-02-19T00:10:39.847Z,7.90
2023-02-19T00:11:39.865Z,7.90
2023-02-19T00:12:39.839Z,7.20
2023-02-19T00:13:39.826Z,6.80
2023-02-19T00:14:39.945Z,7.00
2023-02-19T00:15:39.855Z,6.70
2023-02-19T00:16:39.841Z,5.70
2023-02-19T00:17:39.775Z,5.50
2023-02-19T00:18:39.712Z,4.90
2023-02-19T00:19:39.780Z,4.30
2023-02-19T00:20:39.735Z,3.90
2023-02-19T00:21:39.741Z,3.90
2023-02-19T00:22:39.732Z,3.40
2023-02-19T00:23:39.715Z,3.20
2023-02-19T00:24:39.579Z,3.00
2023-02-19T00:25:39.722Z,3.30
2023-02-19T00:26:39.731Z,2.90
2023-02-19T00:27:39.723Z,2.50
2023-02-19T00:28:39.695Z,2.40
2023-02-19T00:29:39.766Z,2.20
2023-02-19T00:30:39.701Z,2.20
2023-02-19T00:31:39.713Z,2.20
2023-02-19T00:32:39.765Z,2.10
2023-02-19T00:33:39.694Z,2.00
2023-02-19T00:34:39.633Z,1.80
2023-02-19T00:35:39.741Z,2.20
2023-02-19T00:36:39.640Z,1.90
2023-02-19T00:37:39.634Z,2.20
2023-02-19T00:38:39.692Z,2.00
2023-02-19T00:39:39.607Z,1.90
2023-02-19T00:40:39.572Z,1.80
2023-02-19T00:41:39.644Z,1.80
2023-02-19T00:42:39.562Z,1.70
2023-02-19T00:43:39.564Z,1.50
2023-02-19T00:44:39.551Z,1.20
2023-02-19T00:45:39.552Z,1.10
2023-02-19T00:46:39.638Z,1.10
2023-02-19T00:47:39.532Z,1.00
2023-02-19T00:48:39.576Z,0.90
2023-02-19T00:49:39.495Z,1.00
2023-02-19T00:50:39.392Z,0.80
2023-02-19T00:51:39.489Z,1.00
2023-02-19T00:52:39.570Z,0.90
2023-02-19T00:53:39.478Z,1.10
2023-02-19T00:54:39.500Z,1.20
2023-02-19T00:55:39.503Z,1.20
2023-02-19T00:56:39.435Z,1.40
2023-02-19T00:57:39.454Z,1.10
2023-02-19T00:58:39.536Z,1.20
2023-02-19T00:59:39.466Z,1.30
2023-02-19T01:00:39.414Z,1.30
2023-02-19T01:01:39.485Z,1.30
2023-02-19T01:02:39.387Z,1.30
2023-02-19T01:03:39.400Z,1.30
2023-02-19T01:04:39.553Z,1.40
2023-02-19T01:05:39.360Z,1.60
2023-02-19T01:06:39.218Z,1.50
2023-02-19T01:07:39.273Z,1.60
2023-02-19T01:08:39.120Z,1.60
2023-02-19T01:09:39.405Z,1.70
2023-02-19T01:10:39.336Z,2.00
2023-02-19T01:11:39.320Z,1.60
2023-02-19T01:12:39.292Z,1.90
2023-02-19T01:13:39.283Z,1.80
2023-02-19T01:14:39.170Z,1.90
2023-02-19T01:15:39.272Z,2.10
2023-02-19T01:16:39.296Z,2.00
2023-02-19T01:17:39.222Z,2.00
2023-02-19T01:18:39.208Z,1.80
2023-02-19T01:19:39.330Z,2.00
2023-02-19T01:20:39.333Z,2.00
2023-02-19T01:21:39.258Z,2.00
2023-02-19T01:22:39.092Z,2.20
2023-02-19T01:23:39.093Z,1.90
2023-02-19T01:24:39.120Z,2.10
2023-02-19T01:25:39.272Z,1.80
2023-02-19T01:26:39.244Z,1.90
2023-02-19T01:27:39.072Z,2.00
2023-02-19T01:28:38.993Z,2.10
2023-02-19T01:29:38.967Z,2.30
2023-02-19T01:30:38.961Z,2.50
2023-02-19T01:31:39.295Z,2.30
2023-02-19T01:32:39.032Z,2.30
2023-02-19T01:33:38.861Z,2.10
2023-02-19T01:34:39.028Z,2.40
2023-02-19T01:35:38.883Z,2.30
2023-02-19T01:36:39.177Z,2.30
2023-02-19T01:37:39.023Z,2.40
2023-02-19T01:38:39.031Z,2.80
2023-02-19T01:39:39.031Z,2.60
2023-02-19T01:40:39.044Z,3.00
2023-02-19T01:41:39.024Z,3.00
2023-02-19T01:42:39.023Z,4.40
2023-02-19T01:43:39.031Z,4.80
2023-02-19T01:44:39.028Z,4.50
2023-02-19T01:45:39.050Z,5.20
2023-02-19T01:46:39.007Z,5.80
2023-02-19T01:47:39.060Z,6.50
2023-02-19T01:48:38.947Z,6.40
2023-02-19T01:49:38.876Z,7.20
2023-02-19T01:50:38.876Z,7.20
2023-02-19T01:51:38.973Z,7.00
2023-02-19T01:52:38.874Z,8.10
2023-02-19T01:53:38.852Z,8.70
2023-02-19T01:54:38.833Z,8.80
2023-02-19T01:55:38.903Z,8.70
2023-02-19T01:56:38.830Z,8.80
2023-02-19T01:57:38.923Z,9.10
2023-02-19T01:58:38.868Z,9.40
2023-02-19T01:59:38.799Z,9.20
2023-02-19T02:00:38.752Z,9.20
2023-02-19T02:01:38.837Z,9.00
2023-02-19T02:02:38.869Z,8.80
2023-02-19T02:03:38.797Z,9.30
2023-02-19T02:04:38.880Z,9.50
2023-02-19T02:05:38.794Z,9.60
2023-02-19T02:06:38.787Z,9.70
2023-02-19T02:07:38.785Z,10.50
2023-02-19T02:08:38.560Z,11.20
2023-02-19T02:09:38.865Z,11.50
2023-02-19T02:10:38.711Z,11.70
2023-02-19T02:11:38.705Z,11.70
2023-02-19T02:12:38.706Z,11.50
2023-02-19T02:13:38.765Z,11.70
2023-02-19T02:14:38.696Z,11.40
2023-02-19T02:15:38.697Z,11.90
2023-02-19T02:16:38.692Z,11.60
2023-02-19T02:17:38.680Z,11.90
2023-02-19T02:18:38.477Z,12.10
2023-02-19T02:19:38.735Z,11.60
2023-02-19T02:20:38.631Z,11.50
2023-02-19T02:21:38.610Z,10.60
2023-02-19T02:22:38.602Z,10.00
2023-02-19T02:23:38.582Z,10.70
2023-02-19T02:24:38.571Z,11.20
2023-02-19T02:25:38.654Z,11.70
2023-02-19T02:26:38.567Z,11.30
2023-02-19T02:27:38.563Z,11.10
2023-02-19T02:28:38.562Z,11.10
2023-02-19T02:29:38.514Z,12.00
2023-02-19T02:30:38.665Z,11.80
2023-02-19T02:31:38.653Z,11.60
2023-02-19T02:32:38.518Z,11.40
2023-02-19T02:33:38.504Z,10.80
2023-02-19T02:34:38.330Z,10.30
2023-02-19T02:35:38.477Z,10.10
2023-02-19T02:36:38.556Z,9.90
2023-02-19T02:37:38.457Z,9.60
2023-02-19T02:38:38.458Z,9.20
2023-02-19T02:39:38.456Z,9.10
2023-02-19T02:40:38.543Z,9.40
2023-02-19T02:41:38.462Z,9.10
2023-02-19T02:42:38.221Z,9.60
2023-02-19T02:43:38.445Z,8.90
2023-02-19T02:44:38.430Z,8.20
2023-02-19T02:45:38.558Z,8.90
2023-02-19T02:46:38.493Z,9.50
2023-02-19T02:47:38.361Z,9.00
2023-02-19T02:48:38.400Z,9.40
2023-02-19T02:49:38.322Z,8.40
2023-02-19T02:50:38.158Z,8.50
2023-02-19T02:51:38.456Z,9.10
2023-02-19T02:52:38.170Z,8.90
2023-02-19T02:53:38.332Z,8.90
2023-02-19T02:54:38.318Z,8.40
2023-02-19T02:55:38.212Z,9.40
2023-02-19T02:56:38.277Z,9.60
2023-02-19T02:57:38.192Z,9.60
2023-02-19T02:58:38.191Z,9.60
2023-02-19T02:59:38.151Z,9.70
2023-02-19T03:00:38.168Z,9.80
2023-02-19T03:01:38.149Z,9.20
2023-02-19T03:02:38.117Z,9.50
2023-02-19T03:03:38.002Z,9.50
2023-02-19T03:04:38.113Z,9.70
2023-02-19T03:05:38.038Z,9.80
2023-02-19T03:06:38.081Z,9.30
2023-02-19T03:07:38.033Z,9.50
2023-02-19T03:08:38.247Z,10.20
2023-02-19T03:09:38.241Z,9.20
2023-02-19T03:10:38.168Z,9.50
2023-02-19T03:11:38.079Z,9.10
2023-02-19T03:12:38.147Z,9.50
2023-02-19T03:13:38.140Z,9.60
2023-02-19T03:14:37.899Z,9.40
2023-02-19T03:15:38.223Z,9.80
2023-02-19T03:16:37.977Z,9.20
2023-02-19T03:17:38.109Z,9.30
2023-02-19T03:18:38.076Z,10.00
2023-02-19T03:19:38.103Z,10.00
2023-02-19T03:20:38.079Z,9.10
2023-02-19T03:21:38.062Z,9.30
2023-02-19T03:22:38.043Z,9.80
2023-02-19T03:23:38.102Z,9.80
2023-02-19T03:24:37.988Z,9.60
2023-02-19T03:25:38.075Z,9.30
2023-02-19T03:26:38.025Z,9.70
2023-02-19T03:27:38.016Z,9.90
2023-02-19T03:28:38.015Z,9.50
2023-02-19T03:29:38.089Z,9.90
2023-02-19T03:30:37.851Z,9.80
2023-02-19T03:31:38.018Z,9.70
2023-02-19T03:32:37.970Z,10.20
2023-02-19T03:33:37.892Z,10.30
2023-02-19T03:34:37.918Z,10.30
2023-02-19T03:35:37.973Z,10.60
2023-02-19T03:36:37.892Z,10.00
2023-02-19T03:37:37.884Z,10.10
2023-02-19T03:38:37.890Z,10.40
2023-02-19T03:39:37.887Z,10.40
2023-02-19T03:40:37.955Z,9.90
2023-02-19T03:41:37.852Z,10.50
2023-02-19T03:42:37.841Z,11.10
2023-02-19T03:43:37.822Z,11.20
2023-02-19T03:44:37.796Z,10.60
2023-02-19T03:45:37.905Z,10.70
2023-02-19T03:46:37.789Z,11.90
2023-02-19T03:47:37.780Z,10.50
2023-02-19T03:48:37.700Z,10.70
2023-02-19T03:49:37.779Z,10.80
2023-02-19T03:50:37.775Z,10.60
2023-02-19T03:51:37.830Z,11.20
2023-02-19T03:52:37.628Z,11.10
2023-02-19T03:53:37.713Z,11.00
2023-02-19T03:54:37.513Z,10.70
2023-02-19T03:55:37.753Z,11.00
2023-02-19T03:56:37.813Z,10.90
2023-02-19T03:57:37.603Z,11.10
2023-02-19T03:58:37.581Z,10.10
2023-02-19T03:59:37.493Z,10.00
2023-02-19T04:00:37.572Z,10.60
2023-02-19T04:01:37.738Z,10.90
2023-02-19T04:02:37.527Z,11.50
2023-02-19T04:03:37.446Z,10.40
2023-02-19T04:04:37.706Z,10.80
2023-02-19T04:05:37.440Z,10.60
2023-02-19T04:06:37.390Z,10.20
2023-02-19T04:07:37.647Z,10.40
2023-02-19T04:08:37.625Z,10.10
2023-02-19T04:09:37.554Z,10.30
2023-02-19T04:10:37.612Z,10.60
2023-02-19T04:11:37.601Z,9.50
2023-02-19T04:12:37.599Z,10.60
2023-02-19T04:13:37.529Z,10.40
2023-02-19T04:14:37.347Z,10.40
2023-02-19T04:15:37.439Z,10.50
2023-02-19T04:16:37.596Z,10.70
2023-02-19T04:17:37.614Z,11.20
2023-02-19T04:18:37.608Z,11.10
2023-02-19T04:19:37.521Z,11.90
2023-02-19T04:20:37.519Z,11.40
2023-02-19T04:21:37.494Z,10.70
2023-02-19T04:22:37.568Z,10.50
2023-02-19T04:23:37.505Z,10.90
2023-02-19T04:24:37.416Z,10.80
2023-02-19T04:25:37.425Z,10.90
2023-02-19T04:26:37.419Z,11.40
2023-02-19T04:27:37.412Z,10.60
2023-02-19T04:28:37.412Z,10.20
2023-02-19T04:29:39.167Z,10.60
2023-02-19T04:30:37.313Z,10.30
2023-02-19T04:31:37.383Z,10.10
2023-02-19T04:32:37.355Z,10.00
2023-02-19T04:33:37.383Z,10.40
2023-02-19T04:34:37.393Z,10.50
2023-02-19T04:35:37.226Z,9.90
2023-02-19T04:36:37.203Z,10.30
2023-02-19T04:37:37.349Z,10.00
2023-02-19T04:38:37.334Z,9.80
2023-02-19T04:39:37.386Z,10.20
2023-02-19T04:40:37.309Z,10.40
2023-02-19T04:41:37.295Z,9.80
2023-02-19T04:42:37.282Z,9.80
2023-02-19T04:43:37.273Z,9.70
2023-02-19T04:44:37.333Z,9.90
2023-02-19T04:45:37.249Z,9.10
2023-02-19T04:46:37.288Z,9.80
2023-02-19T04:47:36.990Z,8.90
2023-02-19T04:48:37.096Z,8.90
2023-02-19T04:49:37.225Z,9.10
2023-02-19T04:50:37.216Z,9.20
2023-02-19T04:51:37.210Z,9.40
2023-02-19T04:52:37.056Z,8.50
2023-02-19T04:53:37.051Z,8.90
2023-02-19T04:54:37.051Z,8.90
2023-02-19T04:55:37.074Z,8.40
2023-02-19T04:56:37.079Z,8.20
2023-02-19T04:57:37.081Z,8.20
2023-02-19T04:58:37.094Z,8.40
2023-02-19T04:59:37.046Z,8.60
2023-02-19T05:00:37.045Z,8.60
2023-02-19T05:01:37.240Z,8.80
2023-02-19T05:02:37.148Z,8.50
2023-02-19T05:03:36.960Z,8.40
2023-02-19T05:04:37.112Z,8.20
2023-02-19T05:05:37.042Z,8.40
2023-02-19T05:06:37.012Z,8.30
2023-02-19T05:07:36.985Z,8.40
2023-02-19T05:08:37.048Z,8.80
2023-02-19T05:09:36.966Z,9.10
2023-02-19T05:10:36.975Z,8.70
2023-02-19T05:11:37.060Z,9.40
2023-02-19T05:12:37.058Z,9.10
2023-02-19T05:13:36.967Z,8.70
2023-02-19T05:14:37.028Z,8.00
2023-02-19T05:15:36.797Z,8.20
2023-02-19T05:16:36.714Z,8.30
2023-02-19T05:17:36.787Z,9.10
2023-02-19T05:18:36.986Z,8.20
2023-02-19T05:19:36.887Z,8.20
2023-02-19T05:20:36.735Z,8.00
2023-02-19T05:21:36.695Z,8.00
2023-02-19T05:22:36.942Z,7.80
2023-02-19T05:23:36.858Z,7.90
2023-02-19T05:24:36.858Z,8.20
2023-02-19T05:25:36.709Z,7.90
2023-02-19T05:26:36.808Z,7.60
2023-02-19T05:27:36.824Z,7.60
2023-02-19T05:28:36.803Z,7.80
2023-02-19T05:29:36.667Z,7.90
2023-02-19T05:30:36.859Z,7.40
2023-02-19T05:31:36.851Z,7.30
2023-02-19T05:32:36.692Z,7.10
2023-02-19T05:33:36.961Z,6.90
2023-02-19T05:34:36.570Z,7.00
2023-02-19T05:35:36.547Z,6.40
2023-02-19T05:36:36.532Z,6.40
2023-02-19T05:37:36.564Z,6.10
2023-02-19T05:38:36.718Z,6.00
2023-02-19T05:39:36.516Z,6.80
2023-02-19T05:40:36.629Z,6.20
2023-02-19T05:41:36.634Z,5.90
2023-02-19T05:42:36.762Z,6.30
2023-02-19T05:43:36.753Z,6.30
2023-02-19T05:44:36.619Z,5.80
2023-02-19T05:45:36.732Z,6.00
2023-02-19T05:46:36.729Z,6.00
2023-02-19T05:47:36.618Z,6.00
2023-02-19T05:48:36.545Z,5.90
2023-02-19T05:49:36.634Z,5.70
2023-02-19T05:50:38.696Z,6.10
2023-02-19T05:51:36.590Z,6.10
2023-02-19T05:52:36.399Z,6.30
2023-02-19T05:53:36.499Z,6.20
2023-02-19T05:54:36.487Z,6.10
2023-02-19T05:55:36.540Z,6.20
2023-02-19T05:56:36.362Z,6.30
2023-02-19T05:57:36.568Z,6.00
2023-02-19T05:58:36.544Z,6.30
2023-02-19T05:59:36.443Z,6.30
2023-02-19T06:00:36.428Z,5.90
2023-02-19T06:01:36.488Z,5.70
2023-02-19T06:02:36.549Z,6.00
2023-02-19T06:03:36.368Z,5.60
2023-02-19T06:04:36.247Z,6.10
2023-02-19T06:05:36.234Z,5.60
2023-02-19T06:06:36.183Z,5.30
2023-02-19T06:07:36.311Z,5.40
2023-02-19T06:08:36.273Z,5.30
2023-02-19T06:09:36.251Z,5.30
2023-02-19T06:10:36.379Z,5.60
2023-02-19T06:11:36.421Z,5.50
2023-02-19T06:12:36.238Z,5.10
2023-02-19T06:13:36.313Z,5.30
2023-02-19T06:14:36.161Z,5.90
2023-02-19T06:15:36.318Z,4.90
2023-02-19T06:16:36.110Z,4.70
2023-02-19T06:17:36.280Z,5.00
2023-02-19T06:18:36.113Z,5.10
2023-02-19T06:19:36.256Z,5.10
2023-02-19T06:20:36.240Z,4.70
2023-02-19T06:21:36.227Z,4.70
2023-02-19T06:22:36.299Z,4.50
2023-02-19T06:23:36.185Z,4.60
2023-02-19T06:24:36.311Z,4.60
2023-02-19T06:25:36.235Z,4.60
2023-02-19T06:26:36.303Z,4.70
2023-02-19T06:27:36.189Z,4.60
2023-02-19T06:28:36.195Z,4.50
2023-02-19T06:29:36.190Z,4.50
2023-02-19T06:30:36.171Z,4.50
2023-02-19T06:31:36.322Z,4.50
2023-02-19T06:32:36.162Z,4.60
2023-02-19T06:33:36.163Z,5.40
2023-02-19T06:34:36.006Z,5.30
2023-02-19T06:35:36.016Z,4.80
2023-02-19T06:36:35.949Z,4.90
2023-02-19T06:37:36.033Z,4.90
2023-02-19T06:38:36.034Z,4.90
2023-02-19T06:39:36.026Z,4.90
2023-02-19T06:40:36.028Z,5.00
2023-02-19T06:41:36.028Z,4.90
2023-02-19T06:42:35.889Z,5.30
2023-02-19T06:43:36.041Z,4.50
2023-02-19T06:44:36.051Z,2.90
2023-02-19T06:45:35.956Z,2.10
2023-02-19T06:46:35.952Z,2.10
2023-02-19T06:47:36.074Z,2.20
2023-02-19T06:48:35.933Z,1.80
2023-02-19T06:49:35.947Z,1.90
2023-02-19T06:50:36.080Z,2.00
2023-02-19T06:51:35.962Z,2.00
2023-02-19T06:52:35.809Z,2.20
2023-02-19T06:53:35.908Z,1.80
2023-02-19T06:54:35.992Z,1.30
2023-02-19T06:55:35.844Z,1.30
2023-02-19T06:56:35.848Z,1.20
2023-02-19T06:57:35.832Z,1.50
2023-02-19T06:58:35.813Z,1.40
2023-02-19T06:59:35.935Z,1.30
2023-02-19T07:00:35.839Z,1.20
2023-02-19T07:01:35.855Z,1.20
2023-02-19T07:02:35.849Z,1.00
2023-02-19T07:03:35.908Z,1.10
2023-02-19T07:04:35.786Z,1.20
2023-02-19T07:05:35.775Z,1.10
2023-02-19T07:06:35.765Z,1.10
2023-02-19T07:07:35.776Z,1.20
2023-02-19T07:08:35.892Z,1.20
2023-02-19T07:09:35.889Z,1.30
2023-02-19T07:10:35.578Z,1.40
2023-02-19T07:11:35.571Z,1.00
2023-02-19T07:12:35.873Z,0.90
2023-02-19T07:13:35.675Z,1.20
2023-02-19T07:14:35.514Z,1.10
2023-02-19T07:15:35.676Z,1.10
2023-02-19T07:16:35.548Z,0.90
2023-02-19T07:17:35.525Z,0.80
2023-02-19T07:18:35.584Z,1.10
2023-02-19T07:19:35.545Z,1.00
2023-02-19T07:20:35.714Z,1.00
2023-02-19T07:21:35.467Z,1.10
2023-02-19T07:22:35.548Z,1.00
2023-02-19T07:23:35.442Z,0.90
2023-02-19T07:24:35.612Z,1.10
2023-02-19T07:25:35.814Z,1.20
2023-02-19T07:26:35.602Z,1.10
2023-02-19T07:27:35.586Z,1.00
2023-02-19T07:28:35.572Z,1.20
2023-02-19T07:29:35.630Z,1.20
2023-02-19T07:30:35.713Z,1.40
2023-02-19T07:31:35.671Z,1.10
2023-02-19T07:32:35.338Z,1.10
2023-02-19T07:33:35.541Z,1.00
2023-02-19T07:34:35.528Z,1.10
2023-02-19T07:35:35.457Z,1.10
2023-02-19T07:36:35.534Z,1.20
2023-02-19T07:37:35.457Z,1.00
2023-02-19T07:38:35.459Z,1.00
2023-02-19T07:39:35.471Z,1.00
2023-02-19T07:40:35.483Z,1.00
2023-02-19T07:41:35.390Z,1.00
2023-02-19T07:42:35.540Z,1.10
2023-02-19T07:43:35.319Z,1.00
2023-02-19T07:44:35.408Z,1.10
2023-02-19T07:45:35.404Z,1.00
2023-02-19T07:46:35.303Z,1.10
2023-02-19T07:47:35.305Z,1.10
2023-02-19T07:48:35.258Z,1.20
2023-02-19T07:49:35.280Z,1.20
2023-02-19T07:50:35.367Z,1.20
2023-02-19T07:51:35.325Z,1.20
2023-02-19T07:52:35.175Z,1.30
2023-02-19T07:53:35.282Z,1.20
2023-02-19T07:54:35.138Z,1.30
2023-02-19T07:55:35.275Z,1.30
2023-02-19T07:56:35.123Z,1.20
2023-02-19T07:57:35.406Z,1.30
2023-02-19T07:58:35.281Z,1.20
2023-02-19T07:59:35.261Z,1.30
2023-02-19T08:00:35.255Z,1.30
2023-02-19T08:01:35.215Z,1.40
2023-02-19T08:02:35.183Z,1.30
2023-02-19T08:03:35.336Z,1.20
2023-02-19T08:04:35.234Z,1.30
2023-02-19T08:05:35.454Z,1.20
2023-02-19T08:06:35.196Z,1.10
2023-02-19T08:07:35.204Z,1.20
2023-02-19T08:08:35.189Z,1.10
2023-02-19T08:09:35.477Z,1.20
2023-02-19T08:10:35.208Z,1.30
2023-02-19T08:11:35.139Z,1.10
2023-02-19T08:12:35.124Z,1.00
2023-02-19T08:13:35.200Z,0.90
2023-02-19T08:14:35.289Z,1.00
2023-02-19T08:15:35.125Z,1.00
2023-02-19T08:16:43.020Z,0.90
2023-02-19T08:17:35.086Z,0.80
2023-02-19T08:18:35.081Z,1.00
2023-02-19T08:19:35.072Z,1.00
2023-02-19T08:20:35.123Z,1.00
2023-02-19T08:21:35.102Z,0.80
2023-02-19T08:22:34.910Z,0.70
2023-02-19T08:23:35.123Z,0.80
2023-02-19T08:24:35.111Z,0.80
2023-02-19T08:25:35.018Z,1.00
2023-02-19T08:26:35.010Z,0.90
2023-02-19T08:27:35.011Z,0.80
2023-02-19T08:28:34.993Z,0.80
2023-02-19T08:29:35.142Z,0.70
2023-02-19T08:30:35.318Z,0.80
2023-02-19T08:31:35.114Z,1.00
2023-02-19T08:32:34.988Z,0.90
2023-02-19T08:33:35.049Z,0.80
2023-02-19T08:34:34.859Z,0.90
2023-02-19T08:35:35.107Z,0.80
2023-02-19T08:36:34.875Z,0.80
2023-02-19T08:37:35.043Z,0.80
2023-02-19T08:38:34.829Z,0.90
2023-02-19T08:39:34.990Z,0.90
2023-02-19T08:40:34.832Z,0.90
2023-02-19T08:41:34.942Z,1.10
2023-02-19T08:42:34.914Z,0.90
2023-02-19T08:43:34.882Z,1.10
2023-02-19T08:44:34.863Z,0.90
2023-02-19T08:45:34.850Z,1.00
2023-02-19T08:46:34.856Z,1.10
2023-02-19T08:47:34.984Z,1.00
2023-02-19T08:48:34.819Z,1.00
2023-02-19T08:49:34.969Z,1.00
2023-02-19T08:50:34.792Z,1.00
2023-02-19T08:51:34.685Z,1.10
2023-02-19T08:52:34.644Z,1.10
2023-02-19T08:53:34.568Z,1.00
2023-02-19T08:54:36.231Z,1.20
2023-02-19T08:55:34.599Z,1.10
2023-02-19T08:56:34.695Z,1.20
2023-02-19T08:57:34.507Z,1.10
2023-02-19T08:58:34.598Z,1.10
2023-02-19T08:59:34.657Z,1.20
2023-02-19T09:00:34.473Z,1.30
2023-02-19T09:01:34.556Z,1.30
2023-02-19T09:02:34.473Z,1.40
2023-02-19T09:03:34.431Z,1.30
2023-02-19T09:04:34.718Z,1.40
2023-02-19T09:05:34.555Z,1.50
2023-02-19T09:06:34.567Z,1.30
2023-02-19T09:07:34.572Z,1.40
2023-02-19T09:08:34.574Z,1.40
2023-02-19T09:09:34.643Z,1.60
2023-02-19T09:10:34.564Z,1.60
2023-02-19T09:11:34.561Z,1.60
2023-02-19T09:12:34.550Z,1.60
2023-02-19T09:13:34.537Z,1.50
2023-02-19T09:14:34.562Z,1.90
2023-02-19T09:15:34.532Z,1.60
2023-02-19T09:16:34.505Z,1.80
2023-02-19T09:17:34.559Z,2.40
2023-02-19T09:18:34.525Z,2.40
2023-02-19T09:19:34.423Z,2.40
2023-02-19T09:20:34.485Z,1.50
2023-02-19T09:21:34.392Z,1.30
2023-02-19T09:22:34.529Z,1.00
2023-02-19T09:23:34.434Z,1.20
2023-02-19T09:24:34.398Z,1.10
2023-02-19T09:25:34.424Z,1.10
2023-02-19T09:26:34.964Z,1.20
2023-02-19T09:27:34.366Z,1.10
2023-02-19T09:28:34.347Z,1.00
2023-02-19T09:29:34.324Z,1.20
2023-02-19T09:30:34.345Z,1.10
2023-02-19T09:31:34.443Z,1.10
2023-02-19T09:32:34.292Z,1.10
2023-02-19T09:33:34.291Z,1.30
2023-02-19T09:34:34.276Z,1.30
2023-02-19T09:35:34.385Z,1.50
2023-02-19T09:36:34.325Z,1.20
2023-02-19T09:37:34.296Z,1.20
2023-02-19T09:38:34.283Z,1.50
2023-02-19T09:39:34.261Z,1.70
2023-02-19T09:40:34.247Z,1.60
2023-02-19T09:41:34.235Z,1.70
2023-02-19T09:42:34.221Z,1.40
2023-02-19T09:43:34.356Z,1.40
2023-02-19T09:44:34.179Z,1.60
2023-02-19T09:45:34.143Z,1.40
2023-02-19T09:46:34.154Z,1.70
2023-02-19T09:47:34.274Z,1.60
2023-02-19T09:48:34.262Z,1.30
2023-02-19T09:49:34.229Z,1.30
2023-02-19T09:50:34.207Z,1.10
2023-02-19T09:51:34.180Z,1.10
2023-02-19T09:52:34.135Z,1.00
2023-02-19T09:53:34.261Z,1.30
2023-02-19T09:54:34.123Z,1.30
2023-02-19T09:55:34.158Z,1.00
2023-02-19T09:56:34.130Z,1.40
2023-02-19T09:57:34.105Z,1.10
2023-02-19T09:58:34.084Z,1.30
2023-02-19T09:59:34.138Z,1.10
2023-02-19T10:00:34.141Z,1.20
2023-02-19T10:01:34.111Z,1.20
2023-02-19T10:02:34.188Z,1.20
2023-02-19T10:03:33.848Z,1.30
2023-02-19T10:04:34.085Z,1.20
2023-02-19T10:05:34.074Z,1.10
2023-02-19T10:06:34.096Z,1.30
2023-02-19T10:07:34.016Z,1.10
2023-02-19T10:08:34.027Z,1.20
2023-02-19T10:09:34.045Z,1.40
2023-02-19T10:10:34.069Z,1.20
2023-02-19T10:11:33.950Z,1.30
2023-02-19T10:12:33.930Z,1.40
2023-02-19T10:13:33.786Z,1.30
2023-02-19T10:14:33.932Z,1.30
2023-02-19T10:15:33.921Z,1.50
2023-02-19T10:16:33.905Z,1.80
2023-02-19T10:17:33.909Z,1.60
2023-02-19T10:18:33.889Z,1.40
2023-02-19T10:19:33.884Z,1.70
2023-02-19T10:20:33.850Z,1.30
2023-02-19T10:21:33.697Z,1.40
2023-02-19T10:22:33.838Z,1.50
2023-02-19T10:23:33.802Z,1.50
2023-02-19T10:24:33.773Z,1.80
2023-02-19T10:25:33.908Z,1.90
2023-02-19T10:26:33.721Z,1.90
2023-02-19T10:27:33.695Z,2.90
2023-02-19T10:28:33.717Z,2.50
2023-02-19T10:29:33.694Z,1.60
2023-02-19T10:30:33.911Z,1.80
2023-02-19T10:31:33.818Z,1.60
2023-02-19T10:32:33.706Z,1.50
2023-02-19T10:33:33.520Z,1.50
2023-02-19T10:34:33.671Z,1.40
2023-02-19T10:35:33.660Z,1.50
2023-02-19T10:36:33.824Z,1.50
2023-02-19T10:37:33.644Z,1.60
2023-02-19T10:38:33.641Z,1.40
2023-02-19T10:39:33.645Z,1.30
2023-02-19T10:40:33.642Z,1.30
2023-02-19T10:41:33.632Z,1.50
2023-02-19T10:42:33.477Z,3.20
2023-02-19T10:43:33.634Z,4.20
2023-02-19T10:44:33.643Z,2.20
2023-02-19T10:45:33.540Z,2.00
2023-02-19T10:46:33.712Z,2.60
2023-02-19T10:47:33.580Z,2.10
2023-02-19T10:48:33.377Z,1.70
2023-02-19T10:49:33.560Z,1.40
2023-02-19T10:50:33.574Z,1.60
2023-02-19T10:51:33.574Z,1.60
2023-02-19T10:52:33.600Z,1.80
2023-02-19T10:53:33.525Z,1.90
2023-02-19T10:54:33.545Z,2.40
2023-02-19T10:55:33.483Z,4.00
2023-02-19T10:56:33.487Z,4.30
2023-02-19T10:57:33.565Z,2.90
2023-02-19T10:58:33.489Z,1.80
2023-02-19T10:59:33.480Z,1.80
2023-02-19T11:00:33.474Z,2.00
2023-02-19T11:01:33.524Z,3.90
2023-02-19T11:02:33.414Z,2.60
2023-02-19T11:03:33.471Z,1.70
2023-02-19T11:04:33.473Z,1.80
2023-02-19T11:05:33.407Z,3.30
2023-02-19T11:06:35.019Z,7.70
2023-02-19T11:07:33.416Z,3.40
2023-02-19T11:08:33.409Z,2.60
2023-02-19T11:09:33.402Z,3.30
2023-02-19T11:10:33.324Z,2.60
2023-02-19T11:11:33.320Z,1.90
2023-02-19T11:12:33.324Z,1.90
2023-02-19T11:13:33.311Z,1.70
2023-02-19T11:14:33.382Z,1.60
2023-02-19T11:15:33.295Z,1.90
2023-02-19T11:16:33.383Z,2.10
2023-02-19T11:17:33.314Z,1.90
2023-02-19T11:18:33.241Z,1.80
2023-02-19T11:19:33.228Z,1.70
2023-02-19T11:20:33.143Z,2.00
2023-02-19T11:21:33.222Z,1.90
2023-02-19T11:22:33.244Z,2.30
2023-02-19T11:23:33.307Z,2.00
2023-02-19T11:24:33.203Z,2.50
2023-02-19T11:25:33.048Z,2.20
2023-02-19T11:26:33.266Z,2.40
2023-02-19T11:27:32.990Z,3.10
2023-02-19T11:28:33.222Z,4.20
2023-02-19T11:29:33.188Z,2.40
2023-02-19T11:30:35.896Z,3.20
2023-02-19T11:31:33.108Z,3.60
2023-02-19T11:32:33.109Z,1.90
2023-02-19T11:33:33.163Z,1.70
2023-02-19T11:34:33.115Z,1.80
2023-02-19T11:35:33.074Z,2.00
2023-02-19T11:36:33.100Z,1.90
2023-02-19T11:37:33.144Z,2.40
2023-02-19T11:38:33.094Z,2.10
2023-02-19T11:39:33.044Z,3.20
2023-02-19T11:40:33.078Z,1.90
2023-02-19T11:41:33.120Z,3.80
2023-02-19T11:42:33.060Z,2.80
2023-02-19T11:43:32.997Z,2.90
2023-02-19T11:44:32.946Z,2.30
2023-02-19T11:45:33.002Z,2.00
2023-02-19T11:46:33.071Z,2.40
2023-02-19T11:47:32.928Z,2.00
2023-02-19T11:48:32.893Z,1.70
2023-02-19T11:49:32.922Z,1.80
2023-02-19T11:50:32.982Z,1.50
2023-02-19T11:51:32.935Z,1.90
2023-02-19T11:52:32.900Z,2.20
2023-02-19T11:53:32.821Z,1.60
2023-02-19T11:54:32.923Z,1.60
2023-02-19T11:55:32.953Z,1.70
2023-02-19T11:56:32.910Z,1.90
2023-02-19T11:57:32.865Z,2.00
2023-02-19T11:58:32.902Z,2.50
2023-02-19T11:59:32.946Z,1.70
2023-02-19T12:00:32.749Z,1.60
2023-02-19T12:01:32.851Z,1.90
2023-02-19T12:02:32.855Z,2.00
2023-02-19T12:03:32.917Z,1.80
2023-02-19T12:04:32.851Z,1.80
2023-02-19T12:05:32.865Z,1.90
2023-02-19T12:06:32.614Z,1.80
2023-02-19T12:07:32.735Z,1.90
2023-02-19T12:08:32.871Z,1.50
2023-02-19T12:09:32.768Z,1.50
2023-02-19T12:10:32.728Z,1.70
2023-02-19T12:11:32.694Z,1.70
2023-02-19T12:12:32.741Z,1.80
2023-02-19T12:13:32.714Z,1.60
2023-02-19T12:14:32.785Z,1.80
2023-02-19T12:15:32.704Z,1.60
2023-02-19T12:16:32.772Z,1.60
2023-02-19T12:17:32.646Z,1.20
2023-02-19T12:18:33.940Z,1.20
2023-02-19T12:19:32.667Z,1.30
2023-02-19T12:20:32.754Z,1.30
2023-02-19T12:21:32.655Z,1.10
2023-02-19T12:22:32.489Z,1.20
2023-02-19T12:23:32.631Z,1.20
2023-02-19T12:24:32.691Z,1.30
2023-02-19T12:25:34.546Z,1.40
2023-02-19T12:26:32.597Z,1.40
2023-02-19T12:27:32.566Z,1.40
2023-02-19T12:28:32.542Z,1.30
2023-02-19T12:29:32.526Z,1.60
2023-02-19T12:30:32.618Z,1.40
2023-02-19T12:31:33.145Z,1.30
2023-02-19T12:32:32.529Z,1.30
2023-02-19T12:33:32.513Z,1.20
2023-02-19T12:34:32.521Z,1.50
2023-02-19T12:35:32.278Z,1.30
2023-02-19T12:36:32.462Z,1.50
2023-02-19T12:37:32.359Z,1.30
2023-02-19T12:38:32.428Z,1.20
2023-02-19T12:39:32.480Z,1.20
2023-02-19T12:40:32.470Z,1.20
2023-02-19T12:41:32.221Z,1.20
2023-02-19T12:42:32.254Z,1.30
2023-02-19T12:43:32.419Z,1.40
2023-02-19T12:44:32.261Z,1.30
2023-02-19T12:45:32.395Z,1.10
2023-02-19T12:46:32.405Z,1.10
2023-02-19T12:47:32.408Z,1.10
2023-02-19T12:48:32.465Z,1.10
2023-02-19T12:49:32.345Z,1.00
2023-02-19T12:50:32.319Z,1.00
2023-02-19T12:51:32.308Z,1.20
2023-02-19T12:52:32.439Z,1.10
2023-02-19T12:53:32.328Z,1.10
2023-02-19T12:54:32.277Z,1.10
2023-02-19T12:55:32.268Z,1.10
2023-02-19T12:56:32.277Z,1.20
2023-02-19T12:57:32.358Z,1.20
2023-02-19T12:58:32.351Z,1.20
2023-02-19T12:59:32.286Z,1.10
2023-02-19T13:00:32.235Z,1.30
2023-02-19T13:01:32.062Z,1.20
2023-02-19T13:02:32.213Z,1.20
2023-02-19T13:03:32.216Z,1.20
2023-02-19T13:04:32.158Z,1.20
2023-02-19T13:05:32.120Z,1.20
2023-02-19T13:06:31.967Z,1.50
2023-02-19T13:07:32.109Z,1.50
2023-02-19T13:08:33.997Z,1.60
2023-02-19T13:09:32.137Z,1.50
2023-02-19T13:10:32.119Z,1.50
2023-02-19T13:11:31.992Z,1.50
2023-02-19T13:12:32.077Z,1.40
2023-02-19T13:13:32.050Z,1.30
2023-02-19T13:14:32.093Z,1.20
2023-02-19T13:15:32.128Z,1.20